GVBA

Rabil Airport

Rabil, Cape Verde
TAF GVBA 221100Z 2212/2318 05016KT 9999 SCT014 TEMPO 2222/2308 06006KT
Issued Valid From Valid To
Jan-22 @ 11:00 UTC
(6 hours ago)
Jan-22 @ 12:00 UTC
(5 hours ago)
Jan-23 @ 18:00 UTC
(-1 days ago)
Jan-22 @ 12:00 to Jan-23 @ 18:00
TAF GVBA 221100Z 2212/2318 05016KT 9999 SCT014
Wind Visibility Clouds
50° at 16 knots 10,000+ meters
  • Scattered at 1,400' AGL
Temporary Jan-22 @ 22:00 to Jan-23 @ 08:00
TEMPO 2222/2308 06006KT
Wind
60° at 6 knots
TAF GVBA 221100Z 2212/2318 05016KT 9999 SCT014 TEMPO 2222/2308 06006KT
Issued Jan-22 @ 11:00 UTC
(6 hours ago)
Valid From Jan-22 @ 12:00 UTC
(5 hours ago)
Valid To Jan-23 @ 18:00 UTC
(-1 days ago)
Jan-22 @ 12:00 - Jan-23 @ 18:00
Wind Visibility
50° at 16 knots 10,000+ meters
Clouds
  • Scattered at 1,400' AGL
Temporary Jan-22 @ 22:00 - Jan-23 @ 08:00
Wind
60° at 6 knots